sensor_id;sensor_type;location;lat;lon;timestamp;P1;durP1;ratioP1;P2;durP2;ratioP2
19883;SDS011;10104;50.732;10.174;2022-11-15T00:02:13;5.77;;;3.53;;
19883;SDS011;10104;50.732;10.174;2022-11-15T00:04:34;5.73;;;3.90;;
19883;SDS011;10104;50.732;10.174;2022-11-15T00:06:56;5.50;;;4.10;;
19883;SDS011;10104;50.732;10.174;2022-11-15T00:09:17;5.90;;;3.80;;
19883;SDS011;10104;50.732;10.174;2022-11-15T00:11:39;4.67;;;4.13;;
19883;SDS011;10104;50.732;10.174;2022-11-15T00:14:00;7.50;;;3.97;;
19883;SDS011;10104;50.732;10.174;2022-11-15T00:16:24;6.60;;;4.27;;
19883;SDS011;10104;50.732;10.174;2022-11-15T00:18:46;5.80;;;3.80;;
19883;SDS011;10104;50.732;10.174;2022-11-15T00:21:11;5.73;;;4.00;;
19883;SDS011;10104;50.732;10.174;2022-11-15T00:23:33;8.27;;;4.07;;
19883;SDS011;10104;50.732;10.174;2022-11-15T00:25:55;5.50;;;4.33;;
19883;SDS011;10104;50.732;10.174;2022-11-15T00:28:18;6.63;;;3.93;;
19883;SDS011;10104;50.732;10.174;2022-11-15T00:30:40;6.33;;;4.47;;
19883;SDS011;10104;50.732;10.174;2022-11-15T00:33:04;5.80;;;3.63;;
19883;SDS011;10104;50.732;10.174;2022-11-15T00:35:26;5.13;;;4.30;;
19883;SDS011;10104;50.732;10.174;2022-11-15T00:37:48;5.57;;;3.90;;
19883;SDS011;10104;50.732;10.174;2022-11-15T00:40:10;5.73;;;3.97;;
19883;SDS011;10104;50.732;10.174;2022-11-15T00:42:31;5.93;;;3.87;;
19883;SDS011;10104;50.732;10.174;2022-11-15T00:44:53;8.97;;;4.83;;
19883;SDS011;10104;50.732;10.174;2022-11-15T00:47:14;5.00;;;3.67;;
19883;SDS011;10104;50.732;10.174;2022-11-15T00:49:36;5.07;;;3.50;;
19883;SDS011;10104;50.732;10.174;2022-11-15T00:51:57;6.53;;;3.90;;
19883;SDS011;10104;50.732;10.174;2022-11-15T00:54:19;7.93;;;3.73;;
19883;SDS011;10104;50.732;10.174;2022-11-15T00:56:40;6.50;;;3.70;;
19883;SDS011;10104;50.732;10.174;2022-11-15T00:59:02;4.67;;;3.70;;
19883;SDS011;10104;50.732;10.174;2022-11-15T01:01:23;5.17;;;3.73;;
19883;SDS011;10104;50.732;10.174;2022-11-15T01:03:45;7.57;;;3.83;;
19883;SDS011;10104;50.732;10.174;2022-11-15T01:06:09;6.00;;;3.70;;
19883;SDS011;10104;50.732;10.174;2022-11-15T01:08:31;4.13;;;3.57;;
19883;SDS011;10104;50.732;10.174;2022-11-15T01:10:52;4.80;;;3.97;;
19883;SDS011;10104;50.732;10.174;2022-11-15T01:13:14;4.97;;;3.27;;
19883;SDS011;10104;50.732;10.174;2022-11-15T01:15:38;5.13;;;3.27;;
19883;SDS011;10104;50.732;10.174;2022-11-15T01:18:01;7.37;;;3.50;;
19883;SDS011;10104;50.732;10.174;2022-11-15T01:20:22;5.77;;;3.33;;
19883;SDS011;10104;50.732;10.174;2022-11-15T01:22:44;7.43;;;3.67;;
19883;SDS011;10104;50.732;10.174;2022-11-15T01:25:05;5.87;;;3.93;;
19883;SDS011;10104;50.732;10.174;2022-11-15T01:27:27;5.87;;;4.07;;
19883;SDS011;10104;50.732;10.174;2022-11-15T01:29:48;5.07;;;3.60;;
19883;SDS011;10104;50.732;10.174;2022-11-15T01:32:10;5.33;;;3.33;;
19883;SDS011;10104;50.732;10.174;2022-11-15T01:34:32;6.90;;;3.87;;
19883;SDS011;10104;50.732;10.174;2022-11-15T01:36:53;6.93;;;4.27;;
19883;SDS011;10104;50.732;10.174;2022-11-15T01:39:14;7.20;;;3.63;;
19883;SDS011;10104;50.732;10.174;2022-11-15T01:41:36;6.17;;;4.00;;
19883;SDS011;10104;50.732;10.174;2022-11-15T01:44:31;7.33;;;3.77;;
19883;SDS011;10104;50.732;10.174;2022-11-15T01:46:54;6.37;;;3.93;;
19883;SDS011;10104;50.732;10.174;2022-11-15T01:49:19;4.50;;;3.53;;
19883;SDS011;10104;50.732;10.174;2022-11-15T01:51:42;4.37;;;3.77;;
19883;SDS011;10104;50.732;10.174;2022-11-15T01:54:05;5.47;;;4.10;;
19883;SDS011;10104;50.732;10.174;2022-11-15T01:56:33;6.20;;;4.27;;
19883;SDS011;10104;50.732;10.174;2022-11-15T01:58:59;6.87;;;3.70;;
19883;SDS011;10104;50.732;10.174;2022-11-15T02:01:25;6.23;;;4.00;;
19883;SDS011;10104;50.732;10.174;2022-11-15T02:03:54;5.00;;;3.90;;
19883;SDS011;10104;50.732;10.174;2022-11-15T02:06:20;7.83;;;3.77;;
19883;SDS011;10104;50.732;10.174;2022-11-15T02:08:43;7.13;;;4.27;;
19883;SDS011;10104;50.732;10.174;2022-11-15T02:11:08;6.43;;;4.67;;
19883;SDS011;10104;50.732;10.174;2022-11-15T02:13:30;5.33;;;4.03;;
19883;SDS011;10104;50.732;10.174;2022-11-15T02:18:32;5.50;;;4.20;;
19883;SDS011;10104;50.732;10.174;2022-11-15T02:21:05;5.47;;;3.93;;
19883;SDS011;10104;50.732;10.174;2022-11-15T02:32:37;7.00;;;4.17;;
19883;SDS011;10104;50.732;10.174;2022-11-15T02:42:50;5.67;;;4.57;;
19883;SDS011;10104;50.732;10.174;2022-11-15T02:45:39;7.77;;;4.27;;
19883;SDS011;10104;50.732;10.174;2022-11-15T02:48:05;6.53;;;4.40;;
19883;SDS011;10104;50.732;10.174;2022-11-15T02:50:30;7.47;;;4.30;;
19883;SDS011;10104;50.732;10.174;2022-11-15T02:52:53;7.17;;;5.23;;
19883;SDS011;10104;50.732;10.174;2022-11-15T02:55:26;6.37;;;4.53;;
19883;SDS011;10104;50.732;10.174;2022-11-15T02:57:52;6.13;;;4.70;;
19883;SDS011;10104;50.732;10.174;2022-11-15T03:00:32;6.03;;;4.13;;
19883;SDS011;10104;50.732;10.174;2022-11-15T03:03:04;6.73;;;4.40;;
19883;SDS011;10104;50.732;10.174;2022-11-15T03:06:04;8.10;;;5.17;;
19883;SDS011;10104;50.732;10.174;2022-11-15T03:08:38;9.03;;;4.70;;
19883;SDS011;10104;50.732;10.174;2022-11-15T03:11:13;6.53;;;4.80;;
19883;SDS011;10104;50.732;10.174;2022-11-15T03:16:09;5.80;;;4.50;;
19883;SDS011;10104;50.732;10.174;2022-11-15T03:18:35;6.93;;;4.60;;
19883;SDS011;10104;50.732;10.174;2022-11-15T03:21:00;6.57;;;4.67;;
19883;SDS011;10104;50.732;10.174;2022-11-15T03:23:25;8.07;;;4.20;;
19883;SDS011;10104;50.732;10.174;2022-11-15T03:25:48;7.13;;;5.67;;
19883;SDS011;10104;50.732;10.174;2022-11-15T03:28:12;8.53;;;4.93;;
19883;SDS011;10104;50.732;10.174;2022-11-15T03:30:38;8.47;;;5.33;;
19883;SDS011;10104;50.732;10.174;2022-11-15T03:33:01;6.07;;;4.70;;
19883;SDS011;10104;50.732;10.174;2022-11-15T03:35:26;7.03;;;4.80;;
19883;SDS011;10104;50.732;10.174;2022-11-15T03:37:53;6.83;;;5.00;;
19883;SDS011;10104;50.732;10.174;2022-11-15T03:40:22;10.13;;;4.97;;
19883;SDS011;10104;50.732;10.174;2022-11-15T03:45:46;8.43;;;5.87;;
19883;SDS011;10104;50.732;10.174;2022-11-15T03:48:18;7.57;;;5.67;;
19883;SDS011;10104;50.732;10.174;2022-11-15T03:50:45;7.33;;;6.13;;
19883;SDS011;10104;50.732;10.174;2022-11-15T03:53:07;6.53;;;5.20;;
19883;SDS011;10104;50.732;10.174;2022-11-15T03:55:31;8.00;;;6.00;;
19883;SDS011;10104;50.732;10.174;2022-11-15T03:57:54;8.63;;;6.17;;
19883;SDS011;10104;50.732;10.174;2022-11-15T04:00:19;8.27;;;6.20;;
19883;SDS011;10104;50.732;10.174;2022-11-15T04:02:40;8.07;;;5.70;;
19883;SDS011;10104;50.732;10.174;2022-11-15T04:05:02;9.60;;;6.17;;
19883;SDS011;10104;50.732;10.174;2022-11-15T04:07:23;7.87;;;5.97;;
19883;SDS011;10104;50.732;10.174;2022-11-15T04:09:45;7.53;;;6.13;;
19883;SDS011;10104;50.732;10.174;2022-11-15T04:12:26;10.40;;;6.07;;
19883;SDS011;10104;50.732;10.174;2022-11-15T04:14:53;8.77;;;5.97;;
19883;SDS011;10104;50.732;10.174;2022-11-15T04:17:28;10.23;;;5.90;;
19883;SDS011;10104;50.732;10.174;2022-11-15T04:19:49;7.93;;;6.37;;
19883;SDS011;10104;50.732;10.174;2022-11-15T04:22:29;9.77;;;6.50;;
19883;SDS011;10104;50.732;10.174;2022-11-15T04:25:09;7.43;;;5.57;;
19883;SDS011;10104;50.732;10.174;2022-11-15T04:27:31;8.23;;;5.93;;
19883;SDS011;10104;50.732;10.174;2022-11-15T04:29:52;10.40;;;6.60;;
19883;SDS011;10104;50.732;10.174;2022-11-15T04:32:14;7.50;;;6.40;;
19883;SDS011;10104;50.732;10.174;2022-11-15T04:34:35;8.93;;;6.37;;
19883;SDS011;10104;50.732;10.174;2022-11-15T04:36:57;9.60;;;6.90;;
19883;SDS011;10104;50.732;10.174;2022-11-15T04:39:34;8.23;;;6.57;;
19883;SDS011;10104;50.732;10.174;2022-11-15T04:41:55;9.07;;;6.73;;
19883;SDS011;10104;50.732;10.174;2022-11-15T04:44:16;8.47;;;6.57;;
19883;SDS011;10104;50.732;10.174;2022-11-15T04:46:38;10.77;;;8.00;;
19883;SDS011;10104;50.732;10.174;2022-11-15T04:48:59;10.53;;;8.10;;
19883;SDS011;10104;50.732;10.174;2022-11-15T04:51:21;10.00;;;8.07;;
19883;SDS011;10104;50.732;10.174;2022-11-15T04:53:42;12.47;;;7.50;;
19883;SDS011;10104;50.732;10.174;2022-11-15T04:56:04;11.13;;;8.03;;
19883;SDS011;10104;50.732;10.174;2022-11-15T04:58:25;10.10;;;7.47;;
19883;SDS011;10104;50.732;10.174;2022-11-15T05:00:47;11.33;;;7.50;;
19883;SDS011;10104;50.732;10.174;2022-11-15T05:03:09;10.07;;;6.93;;
19883;SDS011;10104;50.732;10.174;2022-11-15T05:05:50;11.03;;;7.20;;
19883;SDS011;10104;50.732;10.174;2022-11-15T05:08:11;11.07;;;7.70;;
19883;SDS011;10104;50.732;10.174;2022-11-15T05:10:33;10.40;;;7.60;;
19883;SDS011;10104;50.732;10.174;2022-11-15T05:12:54;13.03;;;8.07;;
19883;SDS011;10104;50.732;10.174;2022-11-15T05:15:16;12.50;;;7.83;;
19883;SDS011;10104;50.732;10.174;2022-11-15T05:17:37;10.57;;;7.80;;
19883;SDS011;10104;50.732;10.174;2022-11-15T05:19:59;11.17;;;8.50;;
19883;SDS011;10104;50.732;10.174;2022-11-15T05:22:20;9.53;;;7.77;;
19883;SDS011;10104;50.732;10.174;2022-11-15T05:24:42;11.10;;;8.37;;
19883;SDS011;10104;50.732;10.174;2022-11-15T05:27:03;12.10;;;9.30;;
19883;SDS011;10104;50.732;10.174;2022-11-15T05:29:25;21.17;;;16.13;;
19883;SDS011;10104;50.732;10.174;2022-11-15T05:31:46;21.23;;;15.33;;
19883;SDS011;10104;50.732;10.174;2022-11-15T05:34:08;16.00;;;10.03;;
19883;SDS011;10104;50.732;10.174;2022-11-15T05:36:35;10.37;;;8.23;;
19883;SDS011;10104;50.732;10.174;2022-11-15T05:38:59;13.27;;;7.10;;
19883;SDS011;10104;50.732;10.174;2022-11-15T05:41:21;8.83;;;5.93;;
19883;SDS011;10104;50.732;10.174;2022-11-15T05:43:48;8.70;;;6.27;;
19883;SDS011;10104;50.732;10.174;2022-11-15T05:46:11;8.53;;;6.03;;
19883;SDS011;10104;50.732;10.174;2022-11-15T05:48:34;9.40;;;6.70;;
19883;SDS011;10104;50.732;10.174;2022-11-15T05:50:58;10.13;;;6.57;;
19883;SDS011;10104;50.732;10.174;2022-11-15T05:53:21;8.13;;;6.50;;
19883;SDS011;10104;50.732;10.174;2022-11-15T05:55:44;11.73;;;6.90;;
19883;SDS011;10104;50.732;10.174;2022-11-15T05:58:06;10.40;;;6.73;;
19883;SDS011;10104;50.732;10.174;2022-11-15T06:00:28;11.57;;;6.60;;
19883;SDS011;10104;50.732;10.174;2022-11-15T06:02:49;9.13;;;6.03;;
19883;SDS011;10104;50.732;10.174;2022-11-15T06:05:11;8.00;;;5.93;;
19883;SDS011;10104;50.732;10.174;2022-11-15T06:07:32;8.00;;;6.37;;
19883;SDS011;10104;50.732;10.174;2022-11-15T06:09:54;9.33;;;6.53;;
19883;SDS011;10104;50.732;10.174;2022-11-15T06:12:16;11.40;;;7.20;;
19883;SDS011;10104;50.732;10.174;2022-11-15T06:14:37;8.03;;;6.47;;
19883;SDS011;10104;50.732;10.174;2022-11-15T06:16:58;9.33;;;7.00;;
19883;SDS011;10104;50.732;10.174;2022-11-15T06:19:20;9.13;;;6.60;;
19883;SDS011;10104;50.732;10.174;2022-11-15T06:21:41;10.90;;;6.90;;
19883;SDS011;10104;50.732;10.174;2022-11-15T06:24:03;11.50;;;6.70;;
19883;SDS011;10104;50.732;10.174;2022-11-15T06:26:26;11.43;;;6.97;;
19883;SDS011;10104;50.732;10.174;2022-11-15T06:28:47;11.23;;;6.70;;
19883;SDS011;10104;50.732;10.174;2022-11-15T06:31:09;8.80;;;7.00;;
19883;SDS011;10104;50.732;10.174;2022-11-15T06:33:32;8.30;;;6.90;;
19883;SDS011;10104;50.732;10.174;2022-11-15T06:35:54;11.97;;;7.23;;
19883;SDS011;10104;50.732;10.174;2022-11-15T06:38:16;13.40;;;7.03;;
19883;SDS011;10104;50.732;10.174;2022-11-15T06:40:38;12.33;;;6.57;;
19883;SDS011;10104;50.732;10.174;2022-11-15T06:43:00;9.60;;;7.07;;
19883;SDS011;10104;50.732;10.174;2022-11-15T06:45:21;10.93;;;7.27;;
19883;SDS011;10104;50.732;10.174;2022-11-15T06:47:46;8.83;;;6.90;;
19883;SDS011;10104;50.732;10.174;2022-11-15T06:50:08;11.47;;;7.00;;
19883;SDS011;10104;50.732;10.174;2022-11-15T06:52:30;9.50;;;6.63;;
19883;SDS011;10104;50.732;10.174;2022-11-15T06:54:53;8.50;;;6.70;;
19883;SDS011;10104;50.732;10.174;2022-11-15T06:57:15;8.43;;;6.60;;
19883;SDS011;10104;50.732;10.174;2022-11-15T06:59:36;8.43;;;6.30;;
19883;SDS011;10104;50.732;10.174;2022-11-15T07:02:01;11.43;;;7.00;;
19883;SDS011;10104;50.732;10.174;2022-11-15T07:04:22;10.20;;;7.23;;
19883;SDS011;10104;50.732;10.174;2022-11-15T07:06:45;11.73;;;7.10;;
19883;SDS011;10104;50.732;10.174;2022-11-15T07:09:10;7.97;;;6.83;;
19883;SDS011;10104;50.732;10.174;2022-11-15T07:11:32;8.37;;;6.93;;
19883;SDS011;10104;50.732;10.174;2022-11-15T07:13:54;8.70;;;6.90;;
19883;SDS011;10104;50.732;10.174;2022-11-15T07:16:15;9.77;;;6.30;;
19883;SDS011;10104;50.732;10.174;2022-11-15T07:18:37;8.07;;;6.50;;
19883;SDS011;10104;50.732;10.174;2022-11-15T07:21:00;10.30;;;6.50;;
19883;SDS011;10104;50.732;10.174;2022-11-15T07:23:23;10.63;;;7.20;;
19883;SDS011;10104;50.732;10.174;2022-11-15T07:25:44;9.07;;;6.27;;
19883;SDS011;10104;50.732;10.174;2022-11-15T07:28:06;10.20;;;6.00;;
19883;SDS011;10104;50.732;10.174;2022-11-15T07:30:28;11.20;;;6.77;;
19883;SDS011;10104;50.732;10.174;2022-11-15T07:32:53;8.10;;;6.33;;
19883;SDS011;10104;50.732;10.174;2022-11-15T07:35:15;13.43;;;8.77;;
19883;SDS011;10104;50.732;10.174;2022-11-15T07:37:37;21.17;;;12.60;;
19883;SDS011;10104;50.732;10.174;2022-11-15T07:39:58;13.37;;;9.77;;
19883;SDS011;10104;50.732;10.174;2022-11-15T07:42:20;8.97;;;6.57;;
19883;SDS011;10104;50.732;10.174;2022-11-15T07:45:00;10.00;;;6.63;;
19883;SDS011;10104;50.732;10.174;2022-11-15T07:47:21;11.30;;;7.37;;
19883;SDS011;10104;50.732;10.174;2022-11-15T07:49:42;11.37;;;8.20;;
19883;SDS011;10104;50.732;10.174;2022-11-15T07:52:04;7.30;;;6.27;;
19883;SDS011;10104;50.732;10.174;2022-11-15T07:54:25;9.83;;;6.13;;
19883;SDS011;10104;50.732;10.174;2022-11-15T07:56:47;9.53;;;6.47;;
19883;SDS011;10104;50.732;10.174;2022-11-15T07:59:08;8.37;;;6.17;;
19883;SDS011;10104;50.732;10.174;2022-11-15T08:01:30;8.60;;;6.37;;
19883;SDS011;10104;50.732;10.174;2022-11-15T08:03:52;10.23;;;5.90;;
19883;SDS011;10104;50.732;10.174;2022-11-15T08:06:13;7.47;;;5.43;;
19883;SDS011;10104;50.732;10.174;2022-11-15T08:08:34;10.90;;;6.27;;
19883;SDS011;10104;50.732;10.174;2022-11-15T08:10:59;7.83;;;5.60;;
19883;SDS011;10104;50.732;10.174;2022-11-15T08:13:21;7.33;;;5.70;;
19883;SDS011;10104;50.732;10.174;2022-11-15T08:15:43;7.63;;;5.60;;
19883;SDS011;10104;50.732;10.174;2022-11-15T08:18:05;6.60;;;5.30;;
19883;SDS011;10104;50.732;10.174;2022-11-15T08:20:30;8.77;;;5.60;;
19883;SDS011;10104;50.732;10.174;2022-11-15T08:22:52;7.53;;;5.57;;
19883;SDS011;10104;50.732;10.174;2022-11-15T08:25:13;11.97;;;7.43;;
19883;SDS011;10104;50.732;10.174;2022-11-15T08:27:35;11.03;;;7.87;;
19883;SDS011;10104;50.732;10.174;2022-11-15T08:29:57;9.83;;;7.50;;
19883;SDS011;10104;50.732;10.174;2022-11-15T08:32:19;8.90;;;7.40;;
19883;SDS011;10104;50.732;10.174;2022-11-15T08:34:41;11.83;;;8.93;;
19883;SDS011;10104;50.732;10.174;2022-11-15T08:37:02;11.07;;;8.73;;
19883;SDS011;10104;50.732;10.174;2022-11-15T08:39:24;11.97;;;7.80;;
19883;SDS011;10104;50.732;10.174;2022-11-15T08:41:45;10.47;;;6.37;;
19883;SDS011;10104;50.732;10.174;2022-11-15T08:44:07;9.87;;;6.60;;
19883;SDS011;10104;50.732;10.174;2022-11-15T08:46:28;8.03;;;5.13;;
19883;SDS011;10104;50.732;10.174;2022-11-15T08:48:50;6.50;;;5.63;;
19883;SDS011;10104;50.732;10.174;2022-11-15T08:51:11;7.13;;;5.70;;
19883;SDS011;10104;50.732;10.174;2022-11-15T08:53:33;6.47;;;5.43;;
19883;SDS011;10104;50.732;10.174;2022-11-15T08:55:55;5.70;;;5.17;;
19883;SDS011;10104;50.732;10.174;2022-11-15T08:58:16;7.03;;;5.37;;
19883;SDS011;10104;50.732;10.174;2022-11-15T09:00:38;12.03;;;6.10;;
19883;SDS011;10104;50.732;10.174;2022-11-15T09:02:59;8.30;;;5.53;;
19883;SDS011;10104;50.732;10.174;2022-11-15T09:05:21;7.13;;;5.63;;
19883;SDS011;10104;50.732;10.174;2022-11-15T09:07:42;9.73;;;5.63;;
19883;SDS011;10104;50.732;10.174;2022-11-15T09:10:04;8.67;;;6.23;;
19883;SDS011;10104;50.732;10.174;2022-11-15T09:12:26;7.47;;;5.53;;
19883;SDS011;10104;50.732;10.174;2022-11-15T09:14:47;8.03;;;5.50;;
19883;SDS011;10104;50.732;10.174;2022-11-15T09:17:09;6.30;;;5.50;;
19883;SDS011;10104;50.732;10.174;2022-11-15T09:19:31;8.10;;;5.97;;
19883;SDS011;10104;50.732;10.174;2022-11-15T09:21:52;7.30;;;5.63;;
19883;SDS011;10104;50.732;10.174;2022-11-15T09:24:14;6.73;;;5.23;;
19883;SDS011;10104;50.732;10.174;2022-11-15T09:26:35;7.07;;;5.50;;
19883;SDS011;10104;50.732;10.174;2022-11-15T09:28:57;6.53;;;4.90;;
19883;SDS011;10104;50.732;10.174;2022-11-15T09:31:18;7.90;;;5.60;;
19883;SDS011;10104;50.732;10.174;2022-11-15T09:33:45;7.33;;;5.80;;
19883;SDS011;10104;50.732;10.174;2022-11-15T09:36:07;7.07;;;5.17;;
19883;SDS011;10104;50.732;10.174;2022-11-15T09:38:30;7.47;;;5.23;;
19883;SDS011;10104;50.732;10.174;2022-11-15T09:40:58;6.57;;;5.20;;
19883;SDS011;10104;50.732;10.174;2022-11-15T09:49:14;5.93;;;5.30;;
19883;SDS011;10104;50.732;10.174;2022-11-15T09:51:38;6.87;;;5.10;;
19883;SDS011;10104;50.732;10.174;2022-11-15T09:56:49;8.10;;;5.20;;
19883;SDS011;10104;50.732;10.174;2022-11-15T10:05:24;8.27;;;4.57;;
19883;SDS011;10104;50.732;10.174;2022-11-15T10:10:35;5.90;;;4.90;;
19883;SDS011;10104;50.732;10.174;2022-11-15T10:13:00;10.80;;;5.03;;
19883;SDS011;10104;50.732;10.174;2022-11-15T10:15:22;5.57;;;4.30;;
19883;SDS011;10104;50.732;10.174;2022-11-15T10:18:04;6.53;;;4.30;;
19883;SDS011;10104;50.732;10.174;2022-11-15T10:20:30;5.00;;;4.50;;
19883;SDS011;10104;50.732;10.174;2022-11-15T10:23:10;7.43;;;4.73;;
19883;SDS011;10104;50.732;10.174;2022-11-15T10:25:35;7.23;;;4.23;;
19883;SDS011;10104;50.732;10.174;2022-11-15T10:30:51;5.93;;;4.90;;
19883;SDS011;10104;50.732;10.174;2022-11-15T10:33:35;5.17;;;3.97;;
19883;SDS011;10104;50.732;10.174;2022-11-15T10:41:11;8.00;;;5.10;;
19883;SDS011;10104;50.732;10.174;2022-11-15T10:43:33;8.43;;;5.40;;
19883;SDS011;10104;50.732;10.174;2022-11-15T10:45:54;5.57;;;4.63;;
19883;SDS011;10104;50.732;10.174;2022-11-15T10:48:20;7.27;;;4.50;;
19883;SDS011;10104;50.732;10.174;2022-11-15T10:50:44;6.83;;;4.43;;
19883;SDS011;10104;50.732;10.174;2022-11-15T10:53:18;5.90;;;4.53;;
19883;SDS011;10104;50.732;10.174;2022-11-15T10:56:00;6.57;;;4.60;;
19883;SDS011;10104;50.732;10.174;2022-11-15T10:58:35;5.10;;;4.03;;
19883;SDS011;10104;50.732;10.174;2022-11-15T11:01:08;5.83;;;4.13;;
19883;SDS011;10104;50.732;10.174;2022-11-15T11:03:35;6.43;;;3.53;;
19883;SDS011;10104;50.732;10.174;2022-11-15T11:08:27;4.70;;;3.73;;
19883;SDS011;10104;50.732;10.174;2022-11-15T11:10:55;6.17;;;4.00;;
19883;SDS011;10104;50.732;10.174;2022-11-15T11:15:46;7.13;;;4.87;;
19883;SDS011;10104;50.732;10.174;2022-11-15T11:18:15;5.97;;;4.33;;
19883;SDS011;10104;50.732;10.174;2022-11-15T11:20:50;6.30;;;4.60;;
19883;SDS011;10104;50.732;10.174;2022-11-15T11:25:44;5.83;;;3.90;;
19883;SDS011;10104;50.732;10.174;2022-11-15T11:33:57;5.13;;;3.90;;
19883;SDS011;10104;50.732;10.174;2022-11-15T11:36:47;7.23;;;4.57;;
19883;SDS011;10104;50.732;10.174;2022-11-15T11:39:20;5.87;;;4.10;;
19883;SDS011;10104;50.732;10.174;2022-11-15T11:41:49;5.80;;;4.43;;
19883;SDS011;10104;50.732;10.174;2022-11-15T11:44:38;6.47;;;4.20;;
19883;SDS011;10104;50.732;10.174;2022-11-15T11:47:24;6.87;;;3.83;;
19883;SDS011;10104;50.732;10.174;2022-11-15T11:49:59;6.27;;;4.17;;
19883;SDS011;10104;50.732;10.174;2022-11-15T11:54:57;5.83;;;3.87;;
19883;SDS011;10104;50.732;10.174;2022-11-15T11:57:42;5.73;;;3.90;;
19883;SDS011;10104;50.732;10.174;2022-11-15T12:00:21;5.73;;;4.40;;
19883;SDS011;10104;50.732;10.174;2022-11-15T12:03:22;6.47;;;3.80;;
19883;SDS011;10104;50.732;10.174;2022-11-15T12:05:36;6.97;;;3.80;;
19883;SDS011;10104;50.732;10.174;2022-11-15T12:08:04;5.07;;;3.83;;
19883;SDS011;10104;50.732;10.174;2022-11-15T12:10:41;5.40;;;3.87;;
19883;SDS011;10104;50.732;10.174;2022-11-15T12:13:11;4.33;;;3.23;;
19883;SDS011;10104;50.732;10.174;2022-11-15T12:18:52;4.40;;;3.83;;
19883;SDS011;10104;50.732;10.174;2022-11-15T12:21:24;4.80;;;3.95;;
19883;SDS011;10104;50.732;10.174;2022-11-15T12:23:58;5.22;;;3.70;;
19883;SDS011;10104;50.732;10.174;2022-11-15T12:26:26;6.32;;;3.53;;
19883;SDS011;10104;50.732;10.174;2022-11-15T12:29:01;4.20;;;3.80;;
19883;SDS011;10104;50.732;10.174;2022-11-15T12:31:36;5.28;;;3.22;;
19883;SDS011;10104;50.732;10.174;2022-11-15T12:34:47;5.10;;;3.20;;
19883;SDS011;10104;50.732;10.174;2022-11-15T12:36:43;3.80;;;2.78;;
19883;SDS011;10104;50.732;10.174;2022-11-15T12:39:06;4.22;;;2.15;;
19883;SDS011;10104;50.732;10.174;2022-11-15T12:41:31;5.68;;;2.75;;
19883;SDS011;10104;50.732;10.174;2022-11-15T12:43:57;5.80;;;3.28;;
19883;SDS011;10104;50.732;10.174;2022-11-15T12:48:55;6.18;;;3.28;;
19883;SDS011;10104;50.732;10.174;2022-11-15T12:51:22;6.03;;;2.58;;
19883;SDS011;10104;50.732;10.174;2022-11-15T12:54:22;4.05;;;3.00;;
19883;SDS011;10104;50.732;10.174;2022-11-15T12:56:44;3.53;;;2.97;;
19883;SDS011;10104;50.732;10.174;2022-11-15T12:59:06;5.43;;;2.90;;
19883;SDS011;10104;50.732;10.174;2022-11-15T13:06:34;4.93;;;3.28;;
19883;SDS011;10104;50.732;10.174;2022-11-15T13:09:00;4.90;;;3.25;;
19883;SDS011;10104;50.732;10.174;2022-11-15T13:14:37;6.65;;;3.90;;
19883;SDS011;10104;50.732;10.174;2022-11-15T13:18:19;8.35;;;3.75;;
19883;SDS011;10104;50.732;10.174;2022-11-15T13:22:21;5.47;;;3.47;;
19883;SDS011;10104;50.732;10.174;2022-11-15T13:25:01;3.72;;;3.35;;
19883;SDS011;10104;50.732;10.174;2022-11-15T13:27:23;5.25;;;3.30;;
19883;SDS011;10104;50.732;10.174;2022-11-15T13:29:46;5.07;;;3.20;;
19883;SDS011;10104;50.732;10.174;2022-11-15T13:32:10;6.25;;;3.60;;
19883;SDS011;10104;50.732;10.174;2022-11-15T13:34:36;8.35;;;3.88;;
19883;SDS011;10104;50.732;10.174;2022-11-15T13:37:35;7.80;;;3.30;;
19883;SDS011;10104;50.732;10.174;2022-11-15T13:40:00;4.18;;;3.33;;
19883;SDS011;10104;50.732;10.174;2022-11-15T13:42:44;5.15;;;3.60;;
19883;SDS011;10104;50.732;10.174;2022-11-15T13:45:11;5.95;;;3.30;;
19883;SDS011;10104;50.732;10.174;2022-11-15T13:47:35;3.97;;;3.22;;
19883;SDS011;10104;50.732;10.174;2022-11-15T13:49:58;5.57;;;3.50;;
19883;SDS011;10104;50.732;10.174;2022-11-15T13:52:22;5.78;;;3.70;;
19883;SDS011;10104;50.732;10.174;2022-11-15T13:54:56;5.50;;;3.50;;
19883;SDS011;10104;50.732;10.174;2022-11-15T13:57:25;5.07;;;3.30;;
19883;SDS011;10104;50.732;10.174;2022-11-15T14:02:47;5.88;;;3.92;;
19883;SDS011;10104;50.732;10.174;2022-11-15T14:05:18;6.63;;;3.70;;
19883;SDS011;10104;50.732;10.174;2022-11-15T14:07:55;7.45;;;3.83;;
19883;SDS011;10104;50.732;10.174;2022-11-15T14:10:36;4.72;;;4.10;;
19883;SDS011;10104;50.732;10.174;2022-11-15T14:12:59;7.60;;;4.05;;
19883;SDS011;10104;50.732;10.174;2022-11-15T14:15:25;6.53;;;3.42;;
19883;SDS011;10104;50.732;10.174;2022-11-15T14:17:50;6.07;;;3.40;;
19883;SDS011;10104;50.732;10.174;2022-11-15T14:22:52;4.38;;;3.15;;
19883;SDS011;10104;50.732;10.174;2022-11-15T14:25:17;4.97;;;3.55;;
19883;SDS011;10104;50.732;10.174;2022-11-15T14:30:31;4.70;;;3.30;;
19883;SDS011;10104;50.732;10.174;2022-11-15T14:32:52;6.78;;;3.45;;
19883;SDS011;10104;50.732;10.174;2022-11-15T14:35:16;5.85;;;3.20;;
19883;SDS011;10104;50.732;10.174;2022-11-15T14:37:39;5.80;;;3.55;;
19883;SDS011;10104;50.732;10.174;2022-11-15T14:40:04;5.10;;;3.55;;
19883;SDS011;10104;50.732;10.174;2022-11-15T14:42:27;4.97;;;3.35;;
19883;SDS011;10104;50.732;10.174;2022-11-15T14:44:49;5.70;;;3.63;;
19883;SDS011;10104;50.732;10.174;2022-11-15T14:47:10;4.97;;;3.85;;
19883;SDS011;10104;50.732;10.174;2022-11-15T14:49:32;7.65;;;4.10;;
19883;SDS011;10104;50.732;10.174;2022-11-15T14:51:53;7.00;;;4.18;;
19883;SDS011;10104;50.732;10.174;2022-11-15T14:54:15;6.00;;;3.80;;
19883;SDS011;10104;50.732;10.174;2022-11-15T14:56:36;5.57;;;3.90;;
19883;SDS011;10104;50.732;10.174;2022-11-15T14:58:58;4.73;;;3.90;;
19883;SDS011;10104;50.732;10.174;2022-11-15T15:01:23;4.80;;;3.40;;
19883;SDS011;10104;50.732;10.174;2022-11-15T15:03:46;6.87;;;3.43;;
19883;SDS011;10104;50.732;10.174;2022-11-15T15:06:08;4.07;;;3.10;;
19883;SDS011;10104;50.732;10.174;2022-11-15T15:08:37;4.57;;;3.37;;
19883;SDS011;10104;50.732;10.174;2022-11-15T15:10:59;9.13;;;3.30;;
19883;SDS011;10104;50.732;10.174;2022-11-15T15:13:22;5.37;;;3.50;;
19883;SDS011;10104;50.732;10.174;2022-11-15T15:15:45;4.30;;;3.27;;
19883;SDS011;10104;50.732;10.174;2022-11-15T15:18:07;5.03;;;3.00;;
19883;SDS011;10104;50.732;10.174;2022-11-15T15:20:29;5.27;;;3.47;;
19883;SDS011;10104;50.732;10.174;2022-11-15T15:22:52;5.50;;;2.87;;
19883;SDS011;10104;50.732;10.174;2022-11-15T15:27:41;5.73;;;3.20;;
19883;SDS011;10104;50.732;10.174;2022-11-15T15:30:03;5.20;;;2.83;;
19883;SDS011;10104;50.732;10.174;2022-11-15T15:32:24;5.97;;;4.07;;
19883;SDS011;10104;50.732;10.174;2022-11-15T15:34:46;7.60;;;3.67;;
19883;SDS011;10104;50.732;10.174;2022-11-15T15:39:45;5.83;;;3.10;;
19883;SDS011;10104;50.732;10.174;2022-11-15T15:42:07;5.40;;;3.50;;
19883;SDS011;10104;50.732;10.174;2022-11-15T15:44:28;5.97;;;3.23;;
19883;SDS011;10104;50.732;10.174;2022-11-15T15:46:49;5.83;;;3.50;;
19883;SDS011;10104;50.732;10.174;2022-11-15T15:49:11;4.07;;;3.33;;
19883;SDS011;10104;50.732;10.174;2022-11-15T15:51:32;4.37;;;3.43;;
19883;SDS011;10104;50.732;10.174;2022-11-15T15:53:54;5.47;;;3.50;;
19883;SDS011;10104;50.732;10.174;2022-11-15T15:56:18;3.93;;;3.00;;